Kief, North Dakota
Current Conditions -  °F | °C
As of 7:35 AM on Sunday 23 Nov 2014 (Local Time) from K5H4 Reporting Station
Overcast Overcast  
Wind Chill: 25°   Ceiling: 2600
Heat Index: 36°   Visibility: 10mi
Dew Point: 32°   Wind: 20mph
Humidity: 87%   Direction: 280°W
Pressure: 29.38"   Gusts: 28mph
Location:  47.86°N, 100.51°W
Report Text: K5H4 231335Z AUTO 28017G24KT 10SM OVC026 02/00 A2938 RMK AO2
Loading
Personal Weather Stations






























Interactive Weather Map New forecast layout! Learn more

10-Day Weather Forecast

Advertisements
Track Severe Weather on mobile